Terminal Aerodrome Forecast
Issued by NWS

Current Version | Previous Version | Text Only | Print | Product List | Glossary On
Versions: 1 2 3 4 5 6 7 8 9 10 11 12 13 14 15 16 17 18 19 20 21 22 23 24 25 26
796 FTUS41 KILN 290903 AAA TAFLUK TAF AMD KLUK 290903Z 2909/3006 00000KT 4SM BR SCT009 BKN018 TEMPO 2909/2912 OVC009 FM291500 03004KT 4SM BR OVC018 FM291700 03004KT P6SM VCSH OVC025 FM291900 VRB04KT P6SM VCSH SCT028 BKN045 AMD NOT SKED=

USA.gov is the U.S. government's official web portal to all federal, state and local government web resources and services.